Time;durP1;ratioP1;P1;durP2;ratioP2;P2;SDS_P1;SDS_P2;PMS_P1;PMS_P2;Temp;Humidity;BMP_temperature;BMP_pressure;BME280_temperature;BME280_humidity;BME280_pressure;Samples;Min_cycle;Max_cycle;Signal;HPM_P1;HPM_P2
2022/10/24 00:00:17;;;;;;;34.77;21.63;;;;;;;;;;4454622;32;20208;-87
2022/10/24 00:02:44;;;;;;;33.30;19.37;;;;;;;;;;4454634;32;20342;-87
2022/10/24 00:05:12;;;;;;;28.63;18.07;;;;;;;;;;4454500;32;20268;-87
2022/10/24 00:07:42;;;;;;;24.50;15.60;;;;;;;;;;4453870;32;20250;-87
2022/10/24 00:10:11;;;;;;;19.53;12.97;;;;;;;;;;4454334;32;20317;-87
2022/10/24 00:12:38;;;;;;;22.57;13.10;;;;;;;;;;4453760;32;20332;-87
2022/10/24 00:15:06;;;;;;;20.90;12.87;;;;;;;;;;4454145;32;20229;-87
2022/10/24 00:17:35;;;;;;;21.07;12.80;;;;;;;;;;4453754;32;20228;-87
2022/10/24 00:20:02;;;;;;;15.43;11.70;;;;;;;;;;4454193;32;20220;-87
2022/10/24 00:22:29;;;;;;;21.60;12.93;;;;;;;;;;4454247;32;20362;-87
2022/10/24 00:24:55;;;;;;;18.37;12.05;;;;;;;;;;4454133;32;20213;-87
2022/10/24 00:27:22;;;;;;;24.90;13.47;;;;;;;;;;4453592;32;20236;-87
2022/10/24 00:29:49;;;;;;;17.07;12.13;;;;;;;;;;4454072;32;20268;-87
2022/10/24 00:32:16;;;;;;;22.77;12.27;;;;;;;;;;4453730;32;20236;-87
2022/10/24 00:34:44;;;;;;;18.90;11.30;;;;;;;;;;4453984;32;20212;-87
2022/10/24 00:37:11;;;;;;;17.53;10.23;;;;;;;;;;4453502;32;20262;-87
2022/10/24 00:39:37;;;;;;;15.32;9.73;;;;;;;;;;4453941;32;20717;-87
2022/10/24 00:42:04;;;;;;;16.63;9.80;;;;;;;;;;4453920;32;20281;-87
2022/10/24 00:44:33;;;;;;;16.93;10.60;;;;;;;;;;4453781;32;20225;-87
2022/10/24 00:47:04;;;;;;;16.70;10.27;;;;;;;;;;4453395;32;20247;-87
2022/10/24 00:49:38;;;;;;;21.57;9.13;;;;;;;;;;4453817;32;20216;-87
2022/10/24 00:52:09;;;;;;;14.73;8.37;;;;;;;;;;4453924;32;20236;-87
2022/10/24 00:54:37;;;;;;;12.40;7.70;;;;;;;;;;4453740;32;20561;-86
2022/10/24 00:57:09;;;;;;;22.10;9.03;;;;;;;;;;4453064;32;20228;-86
2022/10/24 00:59:40;;;;;;;13.97;9.03;;;;;;;;;;4453747;32;20714;-87
2022/10/24 01:02:07;;;;;;;16.13;9.23;;;;;;;;;;4455257;32;20285;-87
2022/10/24 01:04:34;;;;;;;20.60;9.33;;;;;;;;;;4454521;32;20273;-87
2022/10/24 01:07:15;;;;;;;15.23;8.70;;;;;;;;;;4453182;32;20277;-87
2022/10/24 01:10:08;;;;;;;19.53;9.13;;;;;;;;;;4453702;32;20252;-87
2022/10/24 01:12:46;;;;;;;14.20;9.70;;;;;;;;;;4453649;32;20227;-86
2022/10/24 01:15:19;;;;;;;14.87;9.90;;;;;;;;;;4453429;32;20277;-87
2022/10/24 01:17:53;;;;;;;15.10;8.67;;;;;;;;;;4452851;32;20273;-87
2022/10/24 01:20:39;;;;;;;14.13;7.90;;;;;;;;;;4453373;32;20279;-87
2022/10/24 01:23:23;;;;;;;11.53;8.17;;;;;;;;;;4453447;32;20273;-87
2022/10/24 01:26:03;;;;;;;16.33;8.90;;;;;;;;;;4453198;32;20285;-87
2022/10/24 01:28:32;;;;;;;15.10;8.20;;;;;;;;;;4453389;32;20249;-86
2022/10/24 01:31:05;;;;;;;14.03;9.73;;;;;;;;;;4453440;32;20295;-87
2022/10/24 01:33:36;;;;;;;15.60;8.80;;;;;;;;;;4452634;32;20216;-86
2022/10/24 01:36:08;;;;;;;19.23;8.27;;;;;;;;;;4453009;32;20228;-87
2022/10/24 01:38:38;;;;;;;18.67;9.17;;;;;;;;;;4453263;32;20212;-86
2022/10/24 01:41:09;;;;;;;15.40;8.50;;;;;;;;;;4452997;32;20293;-87
2022/10/24 01:43:39;;;;;;;14.23;8.33;;;;;;;;;;4453291;32;20275;-87
2022/10/24 01:46:11;;;;;;;16.20;7.60;;;;;;;;;;4452568;32;20240;-86
2022/10/24 01:48:42;;;;;;;14.70;9.23;;;;;;;;;;4453211;32;20717;-87
2022/10/24 01:51:11;;;;;;;14.57;9.10;;;;;;;;;;4453137;32;20314;-87
2022/10/24 01:53:38;;;;;;;17.50;12.37;;;;;;;;;;4452537;32;20274;-86
2022/10/24 01:56:06;;;;;;;15.93;10.30;;;;;;;;;;4452777;32;20699;-87
2022/10/24 01:58:33;;;;;;;17.27;10.13;;;;;;;;;;4452758;32;20549;-87
2022/10/24 02:01:04;;;;;;;16.03;9.93;;;;;;;;;;4452953;32;20728;-87
2022/10/24 02:03:36;;;;;;;15.20;9.37;;;;;;;;;;4453143;32;20208;-86
2022/10/24 02:06:07;;;;;;;12.77;8.47;;;;;;;;;;4453018;32;20669;-87
2022/10/24 02:08:37;;;;;;;12.27;8.07;;;;;;;;;;4453087;32;20226;-86
2022/10/24 02:11:07;;;;;;;13.20;8.33;;;;;;;;;;4452342;32;20308;-86
2022/10/24 02:13:38;;;;;;;18.93;9.40;;;;;;;;;;4454415;32;20208;-86
2022/10/24 02:16:06;;;;;;;13.77;9.20;;;;;;;;;;4455801;32;20255;-87
2022/10/24 02:18:35;;;;;;;14.93;9.23;;;;;;;;;;4455977;32;20272;-87
2022/10/24 02:21:12;;;;;;;14.60;9.27;;;;;;;;;;4455938;32;20228;-86
2022/10/24 02:23:45;;;;;;;18.60;8.10;;;;;;;;;;4455963;32;20399;-86
2022/10/24 02:26:31;;;;;;;21.57;9.83;;;;;;;;;;4455745;32;20228;-87
2022/10/24 02:29:01;;;;;;;15.23;9.77;;;;;;;;;;4455907;32;20633;-86
2022/10/24 02:31:33;;;;;;;14.03;9.87;;;;;;;;;;4455837;32;20228;-86
2022/10/24 02:34:03;;;;;;;20.80;9.60;;;;;;;;;;4455495;32;20344;-86
2022/10/24 02:36:32;;;;;;;21.57;11.17;;;;;;;;;;4455419;32;20737;-86
2022/10/24 02:39:00;;;;;;;12.53;8.40;;;;;;;;;;4455387;32;20217;-86
2022/10/24 02:41:30;;;;;;;12.10;8.83;;;;;;;;;;4455080;32;20588;-87
2022/10/24 02:43:57;;;;;;;10.83;9.07;;;;;;;;;;4455680;32;20629;-86
2022/10/24 02:46:25;;;;;;;24.60;8.83;;;;;;;;;;4455219;32;20284;-87
2022/10/24 02:48:58;;;;;;;17.17;8.63;;;;;;;;;;4455053;32;20213;-87
2022/10/24 02:51:29;;;;;;;15.80;8.80;;;;;;;;;;4455561;32;20224;-87
2022/10/24 02:53:56;;;;;;;16.00;9.37;;;;;;;;;;4455568;32;20209;-86
2022/10/24 02:56:23;;;;;;;20.30;9.27;;;;;;;;;;4455082;32;20228;-86
2022/10/24 02:58:50;;;;;;;15.20;9.87;;;;;;;;;;4455350;32;20284;-87
2022/10/24 03:01:17;;;;;;;22.47;17.80;;;;;;;;;;4455065;32;20583;-86
2022/10/24 03:03:44;;;;;;;23.87;21.17;;;;;;;;;;4454838;32;20511;-87
2022/10/24 03:06:12;;;;;;;34.77;30.70;;;;;;;;;;4455188;32;20645;-86
2022/10/24 03:08:40;;;;;;;44.40;36.00;;;;;;;;;;4454877;32;20221;-86
2022/10/24 03:11:07;;;;;;;39.67;33.83;;;;;;;;;;4455221;32;20216;-86
2022/10/24 03:13:34;;;;;;;29.50;25.33;;;;;;;;;;4455185;32;20224;-86
2022/10/24 03:16:03;;;;;;;26.77;20.07;;;;;;;;;;4455145;32;20212;-86
2022/10/24 03:18:30;;;;;;;24.97;18.60;;;;;;;;;;4454849;32;20304;-86
2022/10/24 03:20:57;;;;;;;20.30;15.00;;;;;;;;;;4454873;32;20588;-86
2022/10/24 03:23:27;;;;;;;22.47;14.27;;;;;;;;;;4454752;32;20689;-87
2022/10/24 03:25:55;;;;;;;20.70;16.23;;;;;;;;;;4455126;32;20212;-86
2022/10/24 03:28:22;;;;;;;23.50;15.77;;;;;;;;;;4454871;32;20228;-86
2022/10/24 03:30:49;;;;;;;34.93;17.60;;;;;;;;;;4454912;32;20230;-86
2022/10/24 03:33:16;;;;;;;26.93;18.43;;;;;;;;;;4454482;32;20254;-87
2022/10/24 03:35:42;;;;;;;25.10;16.20;;;;;;;;;;4454845;32;20208;-86
2022/10/24 03:38:09;;;;;;;23.23;17.73;;;;;;;;;;4454761;32;20367;-86
2022/10/24 03:40:36;;;;;;;23.57;16.43;;;;;;;;;;4455068;32;20242;-86
2022/10/24 03:43:05;;;;;;;23.90;14.23;;;;;;;;;;4456995;32;20273;-86
2022/10/24 03:45:31;;;;;;;17.10;13.27;;;;;;;;;;4455364;32;20209;-86
2022/10/24 03:47:58;;;;;;;19.40;13.60;;;;;;;;;;4454579;32;20254;-86
2022/10/24 03:50:25;;;;;;;16.47;13.00;;;;;;;;;;4454637;32;20220;-86
2022/10/24 03:52:52;;;;;;;17.57;11.27;;;;;;;;;;4454413;32;20301;-86
2022/10/24 03:55:19;;;;;;;18.57;11.27;;;;;;;;;;4456629;32;20228;-86
2022/10/24 03:57:46;;;;;;;17.13;10.63;;;;;;;;;;4454340;32;20217;-86
2022/10/24 04:00:15;;;;;;;18.47;11.80;;;;;;;;;;4454504;32;20264;-86
2022/10/24 04:02:42;;;;;;;17.03;9.87;;;;;;;;;;4453839;32;20288;-86
2022/10/24 04:05:09;;;;;;;21.43;11.57;;;;;;;;;;4454461;32;20664;-86
2022/10/24 04:07:36;;;;;;;16.30;11.03;;;;;;;;;;4453824;32;20607;-87
2022/10/24 04:10:03;;;;;;;19.57;11.03;;;;;;;;;;4454363;32;20216;-86
2022/10/24 04:12:30;;;;;;;29.73;18.43;;;;;;;;;;4454237;32;20693;-86
2022/10/24 04:14:57;;;;;;;46.53;28.80;;;;;;;;;;4453824;32;20220;-86
2022/10/24 04:17:25;;;;;;;36.63;19.60;;;;;;;;;;4454133;32;20701;-86
2022/10/24 04:19:52;;;;;;;46.80;29.97;;;;;;;;;;4453692;32;20280;-86
2022/10/24 04:22:20;;;;;;;47.40;28.57;;;;;;;;;;4454248;32;20615;-86
2022/10/24 04:24:47;;;;;;;35.07;23.23;;;;;;;;;;4453598;32;20303;-86
2022/10/24 04:27:14;;;;;;;40.73;25.87;;;;;;;;;;4454177;32;20283;-86
2022/10/24 04:29:41;;;;;;;56.27;34.70;;;;;;;;;;4453507;32;20307;-86
2022/10/24 04:32:07;;;;;;;68.43;41.37;;;;;;;;;;4453680;32;20630;-87
2022/10/24 04:34:36;;;;;;;73.93;44.97;;;;;;;;;;4453601;32;20220;-87
2022/10/24 04:37:03;;;;;;;80.70;46.20;;;;;;;;;;4453401;32;20272;-86
2022/10/24 04:39:29;;;;;;;77.77;45.90;;;;;;;;;;4454037;32;20284;-87
2022/10/24 04:41:56;;;;;;;73.70;45.77;;;;;;;;;;4453594;32;20646;-87
2022/10/24 04:44:23;;;;;;;70.67;45.23;;;;;;;;;;4453280;32;20250;-87
2022/10/24 04:46:50;;;;;;;64.43;38.03;;;;;;;;;;4453236;32;20224;-87
2022/10/24 04:49:17;;;;;;;44.27;25.07;;;;;;;;;;4452983;32;20740;-86
2022/10/24 04:51:46;;;;;;;41.37;23.83;;;;;;;;;;4453496;32;20213;-87
2022/10/24 04:54:12;;;;;;;42.63;25.77;;;;;;;;;;4452974;32;20246;-87
2022/10/24 04:56:39;;;;;;;60.87;30.20;;;;;;;;;;4453023;32;20225;-86
2022/10/24 04:59:06;;;;;;;70.97;40.63;;;;;;;;;;4452453;32;20235;-85
2022/10/24 05:01:33;;;;;;;67.50;45.67;;;;;;;;;;4452636;32;20220;-86
2022/10/24 05:03:59;;;;;;;71.80;40.53;;;;;;;;;;4453124;32;20246;-85
2022/10/24 05:06:26;;;;;;;68.60;38.80;;;;;;;;;;4452875;32;20689;-87
2022/10/24 05:08:54;;;;;;;52.53;35.27;;;;;;;;;;4453132;32;20228;-87
2022/10/24 05:11:21;;;;;;;63.97;37.10;;;;;;;;;;4452445;32;20292;-84
2022/10/24 05:13:48;;;;;;;62.10;37.17;;;;;;;;;;4437977;32;20285;-87
2022/10/24 05:16:15;;;;;;;69.80;39.77;;;;;;;;;;4452370;32;20217;-87
2022/10/24 05:18:41;;;;;;;69.03;42.40;;;;;;;;;;4451943;32;20721;-88
2022/10/24 05:21:08;;;;;;;78.03;40.23;;;;;;;;;;4452396;32;20235;-87
2022/10/24 05:23:35;;;;;;;65.80;36.60;;;;;;;;;;4451902;32;20553;-85
2022/10/24 05:26:03;;;;;;;65.17;37.73;;;;;;;;;;4453585;32;20287;-85
2022/10/24 05:28:30;;;;;;;67.03;37.83;;;;;;;;;;4452391;32;20300;-87
2022/10/24 05:30:57;;;;;;;75.30;38.83;;;;;;;;;;4452665;32;20361;-89
2022/10/24 05:33:24;;;;;;;73.93;38.87;;;;;;;;;;4452240;32;20297;-87
2022/10/24 05:35:51;;;;;;;65.30;38.50;;;;;;;;;;4452269;32;20268;-88
2022/10/24 05:38:17;;;;;;;68.47;43.00;;;;;;;;;;4451296;32;20242;-87
2022/10/24 05:40:46;;;;;;;72.10;39.47;;;;;;;;;;4452271;32;20276;-87
2022/10/24 05:43:15;;;;;;;76.43;40.30;;;;;;;;;;4452202;32;20262;-86
2022/10/24 05:45:42;;;;;;;75.27;35.80;;;;;;;;;;4452136;32;20212;-87
2022/10/24 05:48:08;;;;;;;59.73;35.83;;;;;;;;;;4452121;32;20657;-87
2022/10/24 05:50:36;;;;;;;57.03;32.90;;;;;;;;;;4453299;32;20230;-87
2022/10/24 05:53:03;;;;;;;51.30;31.43;;;;;;;;;;4453375;32;20296;-87
2022/10/24 05:55:30;;;;;;;60.07;32.67;;;;;;;;;;4453562;32;20209;-87
2022/10/24 05:57:57;;;;;;;53.60;32.57;;;;;;;;;;4453401;32;20228;-87
2022/10/24 06:00:25;;;;;;;52.13;31.03;;;;;;;;;;4453663;32;20213;-87
2022/10/24 06:02:52;;;;;;;53.30;30.10;;;;;;;;;;4452115;32;20224;-86
2022/10/24 06:05:19;;;;;;;42.40;28.80;;;;;;;;;;4452203;32;20212;-87
2022/10/24 06:07:46;;;;;;;48.00;28.20;;;;;;;;;;4452241;32;20618;-89
2022/10/24 06:10:13;;;;;;;44.17;28.83;;;;;;;;;;4452365;32;20232;-87
2022/10/24 06:12:40;;;;;;;50.63;28.93;;;;;;;;;;4451935;32;20264;-87
2022/10/24 06:15:09;;;;;;;56.00;27.70;;;;;;;;;;4452350;32;20224;-87
2022/10/24 06:17:37;;;;;;;43.90;28.83;;;;;;;;;;4452573;32;20648;-86
2022/10/24 06:20:05;;;;;;;41.93;26.87;;;;;;;;;;4452516;32;20613;-87
2022/10/24 06:22:32;;;;;;;57.43;30.53;;;;;;;;;;4451774;32;20212;-87
2022/10/24 06:24:58;;;;;;;55.97;32.23;;;;;;;;;;4452550;32;20217;-87
2022/10/24 06:27:26;;;;;;;52.43;30.53;;;;;;;;;;4453786;32;20630;-88
2022/10/24 06:29:52;;;;;;;47.23;30.83;;;;;;;;;;4453553;32;20335;-87
2022/10/24 06:32:19;;;;;;;38.47;25.57;;;;;;;;;;4452248;32;20227;-86
2022/10/24 06:34:47;;;;;;;52.13;28.93;;;;;;;;;;4452166;32;20277;-87
2022/10/24 06:37:14;;;;;;;54.07;31.83;;;;;;;;;;4452112;32;20224;-87
2022/10/24 06:39:41;;;;;;;57.57;32.23;;;;;;;;;;4451550;32;20228;-87
2022/10/24 06:42:07;;;;;;;59.30;29.60;;;;;;;;;;4452501;32;20227;-86
2022/10/24 06:44:34;;;;;;;42.00;27.63;;;;;;;;;;4452022;32;20232;-87
2022/10/24 06:47:01;;;;;;;56.83;28.03;;;;;;;;;;4452137;32;20224;-87
2022/10/24 06:49:31;;;;;;;49.10;30.10;;;;;;;;;;4451510;32;20250;-87
2022/10/24 06:51:59;;;;;;;48.10;27.93;;;;;;;;;;4451231;32;20656;-87
2022/10/24 06:54:26;;;;;;;42.43;25.27;;;;;;;;;;4451912;32;20232;-87
2022/10/24 06:56:52;;;;;;;43.57;24.23;;;;;;;;;;4452176;32;20216;-86
2022/10/24 06:59:19;;;;;;;36.27;20.13;;;;;;;;;;4452505;32;20296;-87
2022/10/24 07:01:46;;;;;;;37.37;20.00;;;;;;;;;;4454288;32;20275;-86
2022/10/24 07:04:13;;;;;;;33.80;19.47;;;;;;;;;;4454431;32;20344;-87
2022/10/24 07:06:40;;;;;;;49.40;23.90;;;;;;;;;;4455173;32;20208;-87
2022/10/24 07:09:11;;;;;;;45.53;24.63;;;;;;;;;;4453786;32;20225;-87
2022/10/24 07:11:37;;;;;;;43.33;26.13;;;;;;;;;;4454228;32;20209;-87
2022/10/24 07:14:05;;;;;;;41.47;24.03;;;;;;;;;;4453759;32;20240;-87
2022/10/24 07:16:32;;;;;;;46.37;22.60;;;;;;;;;;4453741;32;20633;-86
2022/10/24 07:18:58;;;;;;;47.37;23.20;;;;;;;;;;4453977;32;20292;-87
2022/10/24 07:21:28;;;;;;;41.00;21.63;;;;;;;;;;4454284;32;20678;-87
2022/10/24 07:23:56;;;;;;;36.93;20.43;;;;;;;;;;4454858;32;20229;-86
2022/10/24 07:26:27;;;;;;;34.73;20.53;;;;;;;;;;4454143;32;20552;-86
2022/10/24 07:28:57;;;;;;;31.43;19.07;;;;;;;;;;4453618;32;20317;-87
2022/10/24 07:31:26;;;;;;;30.57;18.90;;;;;;;;;;4454403;32;20263;-87
2022/10/24 07:33:53;;;;;;;25.63;14.23;;;;;;;;;;4453403;32;20236;-87
2022/10/24 07:36:22;;;;;;;25.80;14.47;;;;;;;;;;4453894;32;20230;-87
2022/10/24 07:38:49;;;;;;;30.30;17.43;;;;;;;;;;4453126;32;20266;-87
2022/10/24 07:41:16;;;;;;;31.07;21.00;;;;;;;;;;4453681;32;20276;-87
2022/10/24 07:43:45;;;;;;;32.97;17.77;;;;;;;;;;4453320;32;20666;-86
2022/10/24 07:46:13;;;;;;;38.60;17.60;;;;;;;;;;4452892;32;20651;-86
2022/10/24 07:48:41;;;;;;;25.50;14.83;;;;;;;;;;4453706;32;20225;-87
2022/10/24 07:51:10;;;;;;;27.37;15.97;;;;;;;;;;4453024;32;20637;-87
2022/10/24 07:53:37;;;;;;;26.27;14.60;;;;;;;;;;4453313;32;20622;-88
2022/10/24 07:56:08;;;;;;;35.03;14.80;;;;;;;;;;4453749;32;20279;-87
2022/10/24 07:58:35;;;;;;;25.00;16.10;;;;;;;;;;4453652;32;20304;-86
2022/10/24 08:01:05;;;;;;;27.73;16.40;;;;;;;;;;4454318;32;20212;-86
2022/10/24 08:03:31;;;;;;;29.10;17.17;;;;;;;;;;4452655;32;20254;-87
2022/10/24 08:05:58;;;;;;;30.70;18.60;;;;;;;;;;4453698;32;20284;-87
2022/10/24 08:08:25;;;;;;;32.20;16.47;;;;;;;;;;4453080;32;20228;-86
2022/10/24 08:10:52;;;;;;;23.53;16.30;;;;;;;;;;4452798;32;20633;-87
2022/10/24 08:13:18;;;;;;;27.27;16.40;;;;;;;;;;4453536;32;20228;-86
2022/10/24 08:15:45;;;;;;;33.40;18.30;;;;;;;;;;4453364;32;20224;-87
2022/10/24 08:18:13;;;;;;;28.00;16.73;;;;;;;;;;4453175;32;20749;-87
2022/10/24 08:20:40;;;;;;;41.77;17.73;;;;;;;;;;4453693;32;20228;-87
2022/10/24 08:23:07;;;;;;;24.15;16.20;;;;;;;;;;4453433;32;20229;-87
2022/10/24 08:25:34;;;;;;;25.85;16.62;;;;;;;;;;4453529;32;20291;-87
2022/10/24 08:28:01;;;;;;;26.13;15.00;;;;;;;;;;4453095;32;20228;-85
2022/10/24 08:30:28;;;;;;;24.37;15.93;;;;;;;;;;4452978;32;20265;-86
2022/10/24 08:32:55;;;;;;;20.63;15.97;;;;;;;;;;4452901;32;20262;-87
2022/10/24 08:35:24;;;;;;;31.67;13.87;;;;;;;;;;4452817;32;20281;-86
2022/10/24 08:37:51;;;;;;;23.27;12.57;;;;;;;;;;4452458;32;20299;-87
2022/10/24 08:40:19;;;;;;;16.77;11.90;;;;;;;;;;4452995;32;20213;-84
2022/10/24 08:42:47;;;;;;;22.80;12.37;;;;;;;;;;4452768;32;20213;-87
2022/10/24 08:45:22;;;;;;;19.33;11.50;;;;;;;;;;4453647;32;20295;-87
2022/10/24 08:47:55;;;;;;;20.90;9.27;;;;;;;;;;4453206;32;20268;-87
2022/10/24 08:50:27;;;;;;;14.33;9.43;;;;;;;;;;4453180;32;20245;-87
2022/10/24 08:53:00;;;;;;;17.30;7.87;;;;;;;;;;4452851;32;20269;-87
2022/10/24 08:55:31;;;;;;;18.50;7.20;;;;;;;;;;4452914;32;20208;-87
2022/10/24 08:58:00;;;;;;;18.85;7.90;;;;;;;;;;4451983;32;20241;-87
2022/10/24 09:00:35;;;;;;;14.77;8.52;;;;;;;;;;4452091;32;20240;-88
2022/10/24 09:03:10;;;;;;;24.33;9.82;;;;;;;;;;4452427;32;20223;-85
2022/10/24 09:05:42;;;;;;;18.67;9.73;;;;;;;;;;4452660;32;20230;-88
2022/10/24 09:08:22;;;;;;;22.10;10.30;;;;;;;;;;4453478;32;20318;-85
2022/10/24 09:10:55;;;;;;;17.23;10.77;;;;;;;;;;4454232;32;20260;-87
2022/10/24 09:13:22;;;;;;;16.00;9.48;;;;;;;;;;4452537;32;20224;-86
2022/10/24 09:15:49;;;;;;;19.37;7.43;;;;;;;;;;4451932;32;20639;-85
2022/10/24 09:18:21;;;;;;;18.30;7.57;;;;;;;;;;4452321;32;20295;-88
2022/10/24 09:20:50;;;;;;;15.95;8.70;;;;;;;;;;4452650;32;20224;-87
2022/10/24 09:23:20;;;;;;;11.70;8.15;;;;;;;;;;4452185;32;20298;-85
2022/10/24 09:25:50;;;;;;;20.90;8.75;;;;;;;;;;4452007;32;20284;-86
2022/10/24 09:28:18;;;;;;;14.18;7.45;;;;;;;;;;4452181;32;20224;-85
2022/10/24 09:30:45;;;;;;;18.15;7.70;;;;;;;;;;4452431;32;20355;-85
2022/10/24 09:33:23;;;;;;;12.57;7.93;;;;;;;;;;4451483;32;20254;-85
2022/10/24 09:35:54;;;;;;;14.55;7.30;;;;;;;;;;4452098;32;20269;-85
2022/10/24 09:38:33;;;;;;;18.25;7.60;;;;;;;;;;4451738;32;20228;-87
2022/10/24 09:41:03;;;;;;;15.88;7.90;;;;;;;;;;4452260;32;20216;-85
2022/10/24 09:43:37;;;;;;;14.63;6.87;;;;;;;;;;4452761;32;20229;-84
2022/10/24 09:46:06;;;;;;;11.32;6.62;;;;;;;;;;4454069;32;20204;-85
2022/10/24 09:48:47;;;;;;;15.30;7.30;;;;;;;;;;4452254;32;20236;-85
2022/10/24 09:51:26;;;;;;;14.73;8.02;;;;;;;;;;4451365;32;20613;-85
2022/10/24 09:54:22;;;;;;;19.80;6.72;;;;;;;;;;4451799;32;20221;-87
2022/10/24 09:56:55;;;;;;;16.87;6.95;;;;;;;;;;4453210;32;20629;-87
2022/10/24 09:59:31;;;;;;;15.10;7.90;;;;;;;;;;4452972;32;20228;-87
2022/10/24 10:02:18;;;;;;;15.07;7.47;;;;;;;;;;4452450;32;20208;-87
2022/10/24 10:04:45;;;;;;;14.98;6.90;;;;;;;;;;4452580;32;20291;-88
2022/10/24 10:07:16;;;;;;;15.80;6.95;;;;;;;;;;4451892;32;20579;-87
2022/10/24 10:09:50;;;;;;;9.32;6.65;;;;;;;;;;4451757;32;20220;-88
2022/10/24 10:12:29;;;;;;;16.58;7.60;;;;;;;;;;4452149;32;20220;-86
2022/10/24 10:14:55;;;;;;;15.65;7.20;;;;;;;;;;4451685;32;20590;-87
2022/10/24 10:17:25;;;;;;;11.52;7.03;;;;;;;;;;4451832;32;20220;-88
2022/10/24 10:19:53;;;;;;;11.95;6.87;;;;;;;;;;4451215;32;20232;-88
2022/10/24 10:22:26;;;;;;;14.15;8.32;;;;;;;;;;4452462;32;20549;-88
2022/10/24 10:24:54;;;;;;;15.43;6.78;;;;;;;;;;4452337;32;20212;-88
2022/10/24 10:27:26;;;;;;;18.60;6.62;;;;;;;;;;4452216;32;20212;-88
2022/10/24 10:30:19;;;;;;;13.27;5.82;;;;;;;;;;4451801;32;20280;-88
2022/10/24 10:33:00;;;;;;;27.13;9.80;;;;;;;;;;4451644;32;20229;-89
2022/10/24 10:35:35;;;;;;;13.93;7.05;;;;;;;;;;4454055;32;20596;-88
2022/10/24 10:38:16;;;;;;;15.88;7.68;;;;;;;;;;4454269;32;20299;-86
2022/10/24 10:40:46;;;;;;;9.90;5.75;;;;;;;;;;4454315;32;20427;-86
2022/10/24 10:43:29;;;;;;;14.87;5.82;;;;;;;;;;4455032;32;20341;-85
2022/10/24 10:46:11;;;;;;;20.17;6.43;;;;;;;;;;4454079;32;20218;-86
2022/10/24 10:48:54;;;;;;;19.67;8.05;;;;;;;;;;4454302;32;20285;-86
2022/10/24 10:51:33;;;;;;;15.23;6.97;;;;;;;;;;4454743;32;20655;-88
2022/10/24 10:54:11;;;;;;;11.23;5.72;;;;;;;;;;4454805;32;20733;-87
2022/10/24 10:56:45;;;;;;;10.30;5.85;;;;;;;;;;4454105;32;20629;-87
2022/10/24 10:59:28;;;;;;;13.07;5.57;;;;;;;;;;4454461;32;20239;-87
2022/10/24 11:02:01;;;;;;;18.92;5.53;;;;;;;;;;4454504;32;20298;-87
2022/10/24 11:04:37;;;;;;;16.10;6.05;;;;;;;;;;4454506;32;20285;-86
2022/10/24 11:07:11;;;;;;;17.50;6.30;;;;;;;;;;4454785;32;20212;-87
2022/10/24 11:09:44;;;;;;;24.80;6.90;;;;;;;;;;4453792;32;20220;-87
2022/10/24 11:12:17;;;;;;;18.60;7.12;;;;;;;;;;4455469;32;20212;-88
2022/10/24 11:14:48;;;;;;;20.40;6.25;;;;;;;;;;4454654;32;20240;-87
2022/10/24 11:17:19;;;;;;;12.13;6.03;;;;;;;;;;4454498;32;20288;-87
2022/10/24 11:20:01;;;;;;;15.95;6.65;;;;;;;;;;4453709;32;20311;-87
2022/10/24 11:22:34;;;;;;;19.00;7.25;;;;;;;;;;4453268;32;20533;-87
2022/10/24 11:25:09;;;;;;;27.00;6.90;;;;;;;;;;4454229;32;20208;-87
2022/10/24 11:27:40;;;;;;;23.02;6.70;;;;;;;;;;4454541;32;20256;-87
2022/10/24 11:30:14;;;;;;;13.95;7.22;;;;;;;;;;4454838;32;20273;-85
2022/10/24 11:32:44;;;;;;;19.90;8.85;;;;;;;;;;4454312;32;20657;-85
2022/10/24 11:35:22;;;;;;;18.58;7.32;;;;;;;;;;4454871;32;20304;-85
2022/10/24 11:37:53;;;;;;;15.55;5.45;;;;;;;;;;4454759;32;20223;-85
2022/10/24 11:40:24;;;;;;;13.62;7.15;;;;;;;;;;4454711;32;20224;-86
2022/10/24 11:42:56;;;;;;;16.87;7.32;;;;;;;;;;4455942;32;20641;-87
2022/10/24 11:45:27;;;;;;;13.13;6.50;;;;;;;;;;4456080;32;20515;-87
2022/10/24 11:48:04;;;;;;;20.62;6.87;;;;;;;;;;4454454;32;20228;-87
2022/10/24 11:50:35;;;;;;;17.02;5.95;;;;;;;;;;4454970;32;20200;-87
2022/10/24 11:53:17;;;;;;;12.00;6.32;;;;;;;;;;4454085;32;20681;-87
2022/10/24 11:55:49;;;;;;;15.10;6.80;;;;;;;;;;4454220;32;20256;-87
2022/10/24 11:58:19;;;;;;;14.87;8.75;;;;;;;;;;4454360;32;20352;-87
2022/10/24 12:01:05;;;;;;;25.83;8.93;;;;;;;;;;4454495;32;20293;-87
2022/10/24 12:03:50;;;;;;;19.10;7.07;;;;;;;;;;4454482;32;20228;-87
2022/10/24 12:06:43;;;;;;;14.10;6.55;;;;;;;;;;4453997;32;20602;-87
2022/10/24 12:09:34;;;;;;;18.95;6.37;;;;;;;;;;4453855;32;20669;-87
2022/10/24 12:12:20;;;;;;;12.43;6.07;;;;;;;;;;4454501;32;20658;-87
2022/10/24 12:15:00;;;;;;;19.85;7.62;;;;;;;;;;4453687;32;20229;-87
2022/10/24 12:17:45;;;;;;;13.85;7.03;;;;;;;;;;4454231;32;20700;-87
2022/10/24 12:20:16;;;;;;;15.95;6.15;;;;;;;;;;4453775;32;20596;-87
2022/10/24 12:22:44;;;;;;;14.52;6.22;;;;;;;;;;4453993;32;20217;-88
2022/10/24 12:25:20;;;;;;;13.95;7.15;;;;;;;;;;4454278;32;20255;-87
2022/10/24 12:27:57;;;;;;;16.45;6.50;;;;;;;;;;4453956;32;20507;-87
2022/10/24 12:30:26;;;;;;;16.05;6.28;;;;;;;;;;4454086;32;20709;-87
2022/10/24 12:32:56;;;;;;;21.25;6.65;;;;;;;;;;4453179;32;20227;-87
2022/10/24 12:35:46;;;;;;;18.08;6.78;;;;;;;;;;4454180;32;20272;-88
2022/10/24 12:39:07;;;;;;;12.65;6.75;;;;;;;;;;4447542;32;20274;-87
2022/10/24 12:41:44;;;;;;;13.75;6.03;;;;;;;;;;4453920;32;20332;-88
2022/10/24 12:44:37;;;;;;;16.92;6.10;;;;;;;;;;4453447;32;20732;-88
2022/10/24 12:47:29;;;;;;;19.77;7.05;;;;;;;;;;4453932;32;20208;-88
2022/10/24 12:49:57;;;;;;;12.65;5.90;;;;;;;;;;4453786;32;20303;-88
2022/10/24 12:53:00;;;;;;;14.48;8.20;;;;;;;;;;4453272;32;20213;-88
2022/10/24 12:55:30;;;;;;;22.83;7.07;;;;;;;;;;4453639;32;20691;-87
2022/10/24 12:57:57;;;;;;;14.60;6.87;;;;;;;;;;4453173;32;20228;-88
2022/10/24 13:00:28;;;;;;;16.75;5.87;;;;;;;;;;4453589;32;20216;-87
2022/10/24 13:03:11;;;;;;;19.92;6.57;;;;;;;;;;4453684;32;20228;-88
2022/10/24 13:06:00;;;;;;;19.52;6.75;;;;;;;;;;4453865;32;20284;-87
2022/10/24 13:08:41;;;;;;;18.98;6.70;;;;;;;;;;4453347;32;20311;-88
2022/10/24 13:11:28;;;;;;;16.17;5.97;;;;;;;;;;4453134;32;20264;-88
2022/10/24 13:14:12;;;;;;;13.85;7.00;;;;;;;;;;4453505;32;20229;-88
2022/10/24 13:16:50;;;;;;;17.35;7.60;;;;;;;;;;4453386;32;20204;-88
2022/10/24 13:19:20;;;;;;;21.50;10.10;;;;;;;;;;4452985;32;20660;-88
2022/10/24 13:21:49;;;;;;;18.62;7.47;;;;;;;;;;4453072;32;20219;-88
2022/10/24 13:24:33;;;;;;;22.23;6.68;;;;;;;;;;4452558;32;20685;-88
2022/10/24 13:27:31;;;;;;;26.77;7.45;;;;;;;;;;4453146;32;20222;-88
2022/10/24 13:30:33;;;;;;;19.12;6.18;;;;;;;;;;4448958;32;20737;-88
2022/10/24 13:33:37;;;;;;;25.75;6.47;;;;;;;;;;4452719;32;20250;-88
2022/10/24 13:36:15;;;;;;;11.75;6.28;;;;;;;;;;4453002;32;20212;-88
2022/10/24 13:38:46;;;;;;;21.33;6.00;;;;;;;;;;4452658;32;20679;-88
2022/10/24 13:41:19;;;;;;;14.02;5.12;;;;;;;;;;4453245;32;20208;-88
2022/10/24 13:43:49;;;;;;;14.82;5.60;;;;;;;;;;4452860;32;20745;-88
2022/10/24 13:46:26;;;;;;;19.83;5.20;;;;;;;;;;4453034;32;20272;-89
2022/10/24 13:48:54;;;;;;;15.70;5.40;;;;;;;;;;4452941;32;20288;-88
2022/10/24 13:51:28;;;;;;;27.75;6.60;;;;;;;;;;4453399;32;20204;-88
2022/10/24 13:54:00;;;;;;;13.30;5.32;;;;;;;;;;4453069;32;20229;-88
2022/10/24 13:56:29;;;;;;;18.58;6.53;;;;;;;;;;4453298;32;20275;-88
2022/10/24 13:58:56;;;;;;;24.98;6.50;;;;;;;;;;4452634;32;20224;-88
2022/10/24 14:01:25;;;;;;;13.60;6.32;;;;;;;;;;4452811;32;20205;-89
2022/10/24 14:03:54;;;;;;;25.30;6.78;;;;;;;;;;4452834;32;20322;-88
2022/10/24 14:06:26;;;;;;;22.95;7.85;;;;;;;;;;4453210;32;20220;-89
2022/10/24 14:08:55;;;;;;;40.15;10.02;;;;;;;;;;4453378;32;20216;-89
2022/10/24 14:11:24;;;;;;;35.13;10.40;;;;;;;;;;4457758;32;20213;-89
2022/10/24 14:13:53;;;;;;;25.90;9.30;;;;;;;;;;4456261;32;20228;-88
2022/10/24 14:16:25;;;;;;;43.65;10.85;;;;;;;;;;4456166;32;20209;-88
2022/10/24 14:19:09;;;;;;;27.85;9.18;;;;;;;;;;4455713;32;20228;-88
2022/10/24 14:21:42;;;;;;;21.05;8.95;;;;;;;;;;4456431;32;20208;-88
2022/10/24 14:24:14;;;;;;;30.15;9.40;;;;;;;;;;4455628;32;20224;-88
2022/10/24 14:26:42;;;;;;;32.10;11.23;;;;;;;;;;4456541;32;20208;-88
2022/10/24 14:29:20;;;;;;;26.27;10.20;;;;;;;;;;4457010;32;20228;-88
2022/10/24 14:31:54;;;;;;;22.85;11.85;;;;;;;;;;4457831;32;20312;-88
2022/10/24 14:34:22;;;;;;;32.70;11.85;;;;;;;;;;4456924;32;20216;-88
2022/10/24 14:36:50;;;;;;;24.77;11.38;;;;;;;;;;4458720;32;20227;-88
2022/10/24 14:39:22;;;;;;;28.83;10.70;;;;;;;;;;4457682;32;20298;-90
2022/10/24 14:41:50;;;;;;;30.65;12.45;;;;;;;;;;4457775;32;20227;-89
2022/10/24 14:44:18;;;;;;;38.45;17.33;;;;;;;;;;4457714;32;20309;-90
2022/10/24 14:46:48;;;;;;;37.05;15.20;;;;;;;;;;4458545;32;20217;-88